createdAt,value
2019-03-29T00:01:36.841Z,6.53
2019-03-29T00:08:21.964Z,6.80
2019-03-29T00:15:08.101Z,7.77
2019-03-29T00:21:53.171Z,7.67
2019-03-29T00:28:38.047Z,7.87
2019-03-29T00:35:22.979Z,8.93
2019-03-29T00:42:07.851Z,7.27
2019-03-29T00:48:52.790Z,7.47
2019-03-29T00:55:37.639Z,8.37
2019-03-29T01:02:22.511Z,8.00
2019-03-29T01:09:07.921Z,8.43
2019-03-29T01:15:53.266Z,9.17
2019-03-29T01:22:38.220Z,9.20
2019-03-29T01:29:23.355Z,8.60
2019-03-29T01:36:08.215Z,8.63
2019-03-29T01:42:53.066Z,8.50
2019-03-29T01:49:38.010Z,8.73
2019-03-29T01:56:23.183Z,8.17
2019-03-29T02:03:08.103Z,9.60
2019-03-29T02:09:53.048Z,9.70
2019-03-29T02:16:38.178Z,9.50
2019-03-29T02:23:23.098Z,10.43
2019-03-29T02:30:09.520Z,9.73
2019-03-29T02:36:54.614Z,9.87
2019-03-29T02:43:39.648Z,10.67
2019-03-29T02:50:24.584Z,10.67
2019-03-29T02:57:09.669Z,11.63
2019-03-29T03:03:54.632Z,11.23
2019-03-29T03:10:39.499Z,12.00
2019-03-29T03:17:24.371Z,12.33
2019-03-29T03:24:09.338Z,10.50
2019-03-29T03:30:54.368Z,11.33
2019-03-29T03:37:39.387Z,12.50
2019-03-29T03:44:24.427Z,13.30
2019-03-29T03:51:10.439Z,13.73
2019-03-29T03:57:57.675Z,12.33
2019-03-29T04:04:42.280Z,13.43
2019-03-29T04:11:27.143Z,12.47
2019-03-29T04:18:15.865Z,13.30
2019-03-29T04:24:59.144Z,14.10
2019-03-29T04:31:44.186Z,13.53
2019-03-29T04:38:29.055Z,14.40
2019-03-29T04:45:14.148Z,14.00
2019-03-29T04:51:59.023Z,14.63
2019-03-29T04:58:43.893Z,14.40
2019-03-29T05:05:28.898Z,13.30
2019-03-29T05:12:13.778Z,14.77
2019-03-29T05:18:58.807Z,13.83
2019-03-29T05:25:43.688Z,13.93
2019-03-29T05:32:28.940Z,13.77
2019-03-29T05:39:14.335Z,13.00
2019-03-29T05:46:01.284Z,13.17
2019-03-29T05:52:46.716Z,13.37
2019-03-29T05:59:31.730Z,14.00
2019-03-29T06:06:16.597Z,15.47
2019-03-29T06:13:01.539Z,14.50
2019-03-29T06:19:46.503Z,10.57
2019-03-29T06:26:31.376Z,8.60
2019-03-29T06:33:16.244Z,9.20
2019-03-29T06:40:01.301Z,8.90
2019-03-29T06:46:47.245Z,8.28
2019-03-29T06:53:32.263Z,9.40
2019-03-29T07:00:17.414Z,11.18
2019-03-29T07:07:02.367Z,10.80
2019-03-29T07:13:57.267Z,11.40
2019-03-29T07:20:34.489Z,11.93
2019-03-29T07:27:19.364Z,13.15
2019-03-29T07:34:04.385Z,12.05
2019-03-29T07:40:49.255Z,11.20
2019-03-29T07:47:35.267Z,11.68
2019-03-29T07:54:20.224Z,11.35
2019-03-29T08:01:05.363Z,11.28
2019-03-29T08:07:50.230Z,11.83
2019-03-29T08:14:35.102Z,12.37
2019-03-29T08:21:19.971Z,11.85
2019-03-29T08:28:04.979Z,11.03
2019-03-29T08:34:49.922Z,11.18
2019-03-29T08:41:34.815Z,10.25
2019-03-29T08:48:19.686Z,10.10
2019-03-29T08:55:06.171Z,9.80
2019-03-29T09:01:51.371Z,9.65
2019-03-29T09:08:36.307Z,9.85
2019-03-29T09:15:21.171Z,9.30
2019-03-29T09:22:06.034Z,8.95
2019-03-29T09:28:50.895Z,8.63
2019-03-29T09:35:36.231Z,8.70
2019-03-29T09:42:29.083Z,8.45
2019-03-29T09:49:08.496Z,8.63
2019-03-29T09:55:53.666Z,8.50
2019-03-29T10:02:38.671Z,8.30
2019-03-29T10:09:23.535Z,6.15
2019-03-29T10:16:08.471Z,6.70
2019-03-29T10:22:53.396Z,6.80
2019-03-29T10:29:38.330Z,7.42
2019-03-29T10:36:23.192Z,6.78
2019-03-29T10:43:08.120Z,6.12
2019-03-29T10:49:52.970Z,6.83
2019-03-29T10:56:37.898Z,6.60
2019-03-29T11:03:23.279Z,6.35
2019-03-29T11:10:10.215Z,5.50
2019-03-29T11:16:55.165Z,5.15
2019-03-29T11:23:40.150Z,4.85
2019-03-29T11:30:25.070Z,4.80
2019-03-29T11:37:09.931Z,4.37
2019-03-29T11:43:54.898Z,4.25
2019-03-29T11:50:40.027Z,4.33
2019-03-29T11:57:25.270Z,3.83
2019-03-29T12:04:10.270Z,4.25
2019-03-29T12:10:55.285Z,3.80
2019-03-29T12:17:40.362Z,3.58
2019-03-29T12:24:25.495Z,4.83
2019-03-29T12:31:10.611Z,4.30
2019-03-29T12:37:55.535Z,4.70
2019-03-29T12:44:40.577Z,4.22
2019-03-29T12:51:26.376Z,4.58
2019-03-29T12:58:11.241Z,5.00
2019-03-29T13:04:56.172Z,4.43
2019-03-29T13:11:41.174Z,4.20
2019-03-29T13:18:26.038Z,4.90
2019-03-29T13:25:11.104Z,4.80
2019-03-29T13:31:56.044Z,4.70
2019-03-29T13:38:41.044Z,5.20
2019-03-29T13:45:27.816Z,5.70
2019-03-29T13:52:12.487Z,5.78
2019-03-29T13:58:57.338Z,6.40
2019-03-29T14:05:42.262Z,5.53
2019-03-29T14:12:27.127Z,7.67
2019-03-29T14:19:11.989Z,6.45
2019-03-29T14:25:56.847Z,6.35
2019-03-29T14:32:41.706Z,6.35
2019-03-29T14:39:26.634Z,5.83
2019-03-29T14:46:11.571Z,6.57
2019-03-29T14:52:56.442Z,7.05
2019-03-29T14:59:41.466Z,6.55
2019-03-29T15:06:26.462Z,6.60
2019-03-29T15:13:11.387Z,6.72
2019-03-29T15:19:56.252Z,6.62
2019-03-29T15:26:41.187Z,7.47
2019-03-29T15:33:26.051Z,7.05
2019-03-29T15:40:11.084Z,7.58
2019-03-29T15:46:56.018Z,7.15
2019-03-29T15:53:40.883Z,6.80
2019-03-29T16:00:25.743Z,7.17
2019-03-29T16:07:10.842Z,7.37
2019-03-29T16:13:55.770Z,7.43
2019-03-29T16:20:40.630Z,7.07
2019-03-29T16:27:25.556Z,7.40
2019-03-29T16:34:10.531Z,7.70
2019-03-29T16:40:55.829Z,7.60
2019-03-29T16:47:40.799Z,7.10
2019-03-29T16:54:25.748Z,7.10
2019-03-29T17:01:11.790Z,7.85
2019-03-29T17:07:56.683Z,7.10
2019-03-29T17:14:41.543Z,7.50
2019-03-29T17:21:26.477Z,6.83
2019-03-29T17:28:11.337Z,7.60
2019-03-29T17:34:56.392Z,7.20
2019-03-29T17:41:41.343Z,7.07
2019-03-29T17:48:26.265Z,6.63
2019-03-29T17:55:11.255Z,6.37
2019-03-29T18:02:08.810Z,7.30
2019-03-29T18:08:42.818Z,7.33
2019-03-29T18:15:27.751Z,7.73
2019-03-29T18:22:12.739Z,7.13
2019-03-29T18:28:57.612Z,7.57
2019-03-29T18:35:42.470Z,8.57
2019-03-29T18:42:27.334Z,8.03
2019-03-29T18:49:12.596Z,8.83
2019-03-29T18:55:57.458Z,8.00
2019-03-29T19:02:43.399Z,9.00
2019-03-29T19:09:31.531Z,8.67
2019-03-29T19:16:14.821Z,9.10
2019-03-29T19:23:00.023Z,9.00
2019-03-29T19:29:44.891Z,9.43
2019-03-29T19:36:29.826Z,14.00
2019-03-29T19:43:14.695Z,8.83
2019-03-29T19:49:59.555Z,9.27
2019-03-29T19:56:44.415Z,9.57
2019-03-29T20:03:29.313Z,9.80
2019-03-29T20:10:14.287Z,8.87
2019-03-29T20:16:59.225Z,9.93
2019-03-29T20:23:45.307Z,9.50
2019-03-29T20:30:30.316Z,10.53
2019-03-29T20:37:15.695Z,9.90
2019-03-29T20:44:00.718Z,9.93
2019-03-29T20:50:45.821Z,10.67
2019-03-29T20:57:30.804Z,11.30
2019-03-29T21:04:15.941Z,10.73
2019-03-29T21:11:01.381Z,10.37
2019-03-29T21:17:56.778Z,11.40
2019-03-29T21:24:34.097Z,11.20
2019-03-29T21:31:19.077Z,12.00
2019-03-29T21:38:04.435Z,10.47
2019-03-29T21:44:50.444Z,11.80
2019-03-29T21:51:35.294Z,11.23
2019-03-29T21:58:20.162Z,11.77
2019-03-29T22:05:05.880Z,12.17
2019-03-29T22:11:50.879Z,11.87
2019-03-29T22:18:38.029Z,11.70
2019-03-29T22:25:22.340Z,11.23
2019-03-29T22:32:07.239Z,22.87
2019-03-29T22:38:53.054Z,12.83
2019-03-29T22:45:38.276Z,13.27
2019-03-29T22:52:23.295Z,11.83
2019-03-29T22:59:08.742Z,12.63
2019-03-29T23:05:53.929Z,13.20
2019-03-29T23:12:39.020Z,14.03
2019-03-29T23:19:23.894Z,13.23
2019-03-29T23:26:09.217Z,13.13
2019-03-29T23:32:54.055Z,13.17
2019-03-29T23:39:38.986Z,13.27
2019-03-29T23:46:23.990Z,13.90
2019-03-29T23:53:08.979Z,14.10
2019-03-29T23:59:55.186Z,14.03
